createdAt,value
2017-10-25T00:01:57.928Z,53.37
2017-10-25T00:06:59.885Z,55.87
2017-10-25T00:12:01.801Z,58.67
2017-10-25T00:17:03.823Z,54.80
2017-10-25T00:22:05.748Z,53.10
2017-10-25T00:27:07.695Z,53.77
2017-10-25T00:32:09.651Z,53.40
2017-10-25T00:37:11.649Z,40.83
2017-10-25T00:42:13.554Z,40.67
2017-10-25T00:47:15.499Z,39.93
2017-10-25T00:52:17.482Z,39.57
2017-10-25T00:57:19.516Z,44.17
2017-10-25T01:02:21.495Z,39.53
2017-10-25T01:07:25.088Z,35.50
2017-10-25T01:12:27.927Z,33.80
2017-10-25T01:17:29.973Z,29.30
2017-10-25T01:22:31.955Z,33.23
2017-10-25T01:27:33.956Z,33.30
2017-10-25T01:32:35.919Z,30.90
2017-10-25T01:37:37.924Z,29.37
2017-10-25T01:42:39.942Z,25.13
2017-10-25T01:47:41.964Z,27.33
2017-10-25T01:52:43.980Z,29.33
2017-10-25T01:57:45.967Z,23.47
2017-10-25T02:02:47.986Z,21.77
2017-10-25T02:07:49.901Z,26.03
2017-10-25T02:12:51.859Z,19.90
2017-10-25T02:17:53.789Z,20.67
2017-10-25T02:22:55.718Z,19.67
2017-10-25T02:27:57.640Z,25.33
2017-10-25T02:33:00.310Z,23.03
2017-10-25T02:38:02.233Z,17.40
2017-10-25T02:43:04.151Z,18.57
2017-10-25T02:48:06.169Z,27.90
2017-10-25T02:53:08.839Z,20.90
2017-10-25T02:58:10.779Z,25.33
2017-10-25T03:03:12.717Z,23.80
2017-10-25T03:08:14.645Z,22.07
2017-10-25T03:13:16.612Z,20.90
2017-10-25T03:18:19.319Z,23.93
2017-10-25T03:23:22.059Z,19.97
2017-10-25T03:28:24.729Z,19.63
2017-10-25T03:33:26.636Z,21.83
2017-10-25T03:38:28.598Z,19.53
2017-10-25T03:43:30.543Z,17.30
2017-10-25T03:48:32.449Z,16.40
2017-10-25T03:53:34.396Z,18.37
2017-10-25T03:58:37.063Z,14.93
2017-10-25T04:03:38.996Z,14.97
2017-10-25T04:08:41.013Z,19.30
2017-10-25T04:13:43.702Z,17.10
2017-10-25T04:18:46.446Z,14.93
2017-10-25T04:23:49.210Z,9.50
2017-10-25T04:28:51.915Z,9.60
2017-10-25T04:33:55.350Z,13.63
2017-10-25T04:38:58.771Z,6.97
2017-10-25T04:44:01.287Z,8.20
2017-10-25T04:49:03.761Z,8.57
2017-10-25T04:54:05.923Z,7.50
2017-10-25T04:59:08.975Z,9.60
2017-10-25T05:04:11.025Z,8.07
2017-10-25T05:09:13.103Z,9.73
2017-10-25T05:14:15.036Z,11.50
2017-10-25T05:19:17.146Z,10.90
2017-10-25T05:24:19.163Z,15.33
2017-10-25T05:29:21.204Z,21.13
2017-10-25T05:34:23.921Z,17.90
2017-10-25T05:39:27.144Z,21.70
2017-10-25T05:44:29.928Z,27.97
2017-10-25T05:49:32.041Z,26.23
2017-10-25T05:54:34.137Z,25.60
2017-10-25T05:59:36.147Z,27.00
2017-10-25T06:04:38.112Z,32.80
2017-10-25T06:09:40.034Z,30.40
2017-10-25T06:14:41.991Z,36.87
2017-10-25T06:19:43.940Z,36.43
2017-10-25T06:24:45.859Z,36.70
2017-10-25T06:29:47.777Z,44.47
2017-10-25T06:34:49.738Z,40.20
2017-10-25T06:39:51.682Z,42.30
2017-10-25T06:44:53.693Z,43.20
2017-10-25T06:49:55.728Z,40.37
2017-10-25T06:54:58.372Z,43.10
2017-10-25T07:00:00.345Z,35.53
2017-10-25T07:05:02.315Z,32.17
2017-10-25T07:10:04.256Z,29.33
2017-10-25T07:15:06.165Z,32.40
2017-10-25T07:20:08.843Z,28.67
2017-10-25T07:25:10.767Z,21.30
2017-10-25T07:30:12.711Z,23.13
2017-10-25T07:35:14.647Z,26.00
2017-10-25T07:40:16.584Z,18.43
2017-10-25T07:45:18.526Z,15.13
2017-10-25T07:50:20.545Z,14.10
2017-10-25T07:55:22.467Z,17.90
2017-10-25T08:00:24.363Z,19.00
2017-10-25T08:05:27.123Z,21.30
2017-10-25T08:10:29.080Z,11.87
2017-10-25T08:15:31.073Z,13.67
2017-10-25T08:20:33.028Z,12.87
2017-10-25T08:25:34.948Z,13.20
2017-10-25T08:30:37.605Z,13.57
2017-10-25T08:35:39.510Z,11.10
2017-10-25T08:40:41.447Z,9.97
2017-10-25T08:45:43.549Z,8.37
2017-10-25T08:50:46.113Z,11.47
2017-10-25T08:55:48.116Z,15.20
2017-10-25T09:00:50.885Z,10.33
2017-10-25T09:05:52.846Z,10.73
2017-10-25T09:10:54.842Z,9.47
2017-10-25T09:15:57.741Z,12.30
2017-10-25T09:20:59.656Z,14.70
2017-10-25T09:26:01.612Z,11.73
2017-10-25T09:31:03.719Z,11.83
2017-10-25T09:36:06.311Z,15.27
2017-10-25T09:41:08.319Z,10.60
2017-10-25T09:46:11.080Z,11.83
2017-10-25T09:51:13.199Z,12.17
2017-10-25T09:56:15.581Z,12.90
2017-10-25T10:01:17.815Z,11.50
2017-10-25T10:06:19.752Z,14.47
2017-10-25T10:11:21.706Z,12.23
2017-10-25T10:16:23.698Z,13.73
2017-10-25T10:21:25.745Z,12.37
2017-10-25T10:26:27.687Z,10.90
2017-10-25T10:31:29.667Z,12.33
2017-10-25T10:36:32.391Z,14.13
2017-10-25T10:41:34.466Z,11.27
2017-10-25T10:46:36.459Z,9.10
2017-10-25T10:51:38.368Z,9.40
2017-10-25T10:56:40.744Z,11.13
2017-10-25T11:01:42.799Z,12.87
2017-10-25T11:06:44.758Z,13.40
2017-10-25T11:11:47.445Z,8.43
2017-10-25T11:16:49.563Z,7.17
2017-10-25T11:21:51.659Z,12.13
2017-10-25T11:26:53.807Z,13.10
2017-10-25T11:31:56.037Z,11.90
2017-10-25T11:36:58.311Z,11.70
2017-10-25T11:42:00.294Z,12.23
2017-10-25T11:47:02.321Z,12.37
2017-10-25T11:52:04.974Z,9.70
2017-10-25T11:57:06.923Z,8.50
2017-10-25T12:02:08.903Z,15.73
2017-10-25T12:07:10.849Z,10.40
2017-10-25T12:12:12.766Z,18.20
2017-10-25T12:17:15.441Z,12.80
2017-10-25T12:22:17.396Z,16.40
2017-10-25T12:27:20.059Z,23.40
2017-10-25T12:32:22.796Z,15.43
2017-10-25T12:37:24.686Z,30.50
2017-10-25T12:42:27.097Z,22.57
2017-10-25T12:47:29.058Z,16.63
2017-10-25T12:52:31.798Z,17.87
2017-10-25T12:57:35.339Z,16.00
2017-10-25T13:02:38.548Z,19.53
2017-10-25T13:07:40.548Z,18.33
2017-10-25T13:12:46.821Z,14.47
2017-10-25T13:17:51.733Z,24.30
2017-10-25T13:22:54.390Z,16.80
2017-10-25T13:27:57.149Z,16.73
2017-10-25T13:32:59.967Z,14.63
2017-10-25T13:38:02.509Z,24.03
2017-10-25T13:43:05.159Z,15.60
2017-10-25T13:48:07.239Z,13.30
2017-10-25T13:53:09.867Z,14.47
2017-10-25T13:58:11.933Z,13.90
2017-10-25T14:03:14.386Z,16.20
2017-10-25T14:08:16.393Z,21.70
2017-10-25T14:13:18.440Z,17.83
2017-10-25T14:18:20.377Z,20.10
2017-10-25T14:23:22.327Z,23.90
2017-10-25T14:28:43.449Z,25.93
2017-10-25T14:33:45.408Z,26.13
2017-10-25T14:38:47.719Z,21.47
2017-10-25T14:43:49.732Z,21.80
2017-10-25T14:48:51.775Z,22.60
2017-10-25T14:53:53.701Z,19.00
2017-10-25T14:58:56.345Z,20.30
2017-10-25T15:03:58.347Z,23.43
2017-10-25T15:09:00.299Z,33.73
2017-10-25T15:14:02.280Z,26.83
2017-10-25T15:19:04.311Z,29.20
2017-10-25T15:24:06.392Z,20.93
2017-10-25T15:29:08.376Z,21.17
2017-10-25T15:34:10.334Z,20.67
2017-10-25T15:39:12.275Z,19.63
2017-10-25T15:44:14.218Z,21.27
2017-10-25T15:49:16.212Z,21.53
2017-10-25T15:54:18.164Z,26.90
2017-10-25T15:59:21.938Z,29.73
2017-10-25T16:04:24.621Z,25.67
2017-10-25T16:09:26.708Z,29.60
2017-10-25T16:14:28.692Z,33.00
2017-10-25T16:19:30.704Z,26.57
2017-10-25T16:24:32.638Z,31.30
2017-10-25T16:29:34.576Z,31.77
2017-10-25T16:34:37.216Z,28.73
2017-10-25T16:39:39.171Z,24.57
2017-10-25T16:44:41.208Z,31.00
2017-10-25T16:49:43.219Z,32.97
2017-10-25T16:54:45.216Z,24.30
2017-10-25T16:59:47.125Z,26.00
2017-10-25T17:04:49.072Z,24.10
2017-10-25T17:09:51.034Z,28.47
2017-10-25T17:14:53.003Z,29.40
2017-10-25T17:19:54.975Z,26.17
2017-10-25T17:24:56.948Z,25.50
2017-10-25T17:29:58.924Z,30.33
2017-10-25T17:35:01.071Z,32.10
2017-10-25T17:40:03.772Z,32.80
2017-10-25T17:45:06.440Z,37.07
2017-10-25T17:50:12.929Z,33.00
2017-10-25T17:55:19.810Z,40.00
2017-10-25T18:00:24.535Z,41.30
2017-10-25T18:05:26.789Z,39.20
2017-10-25T18:10:33.105Z,43.83
2017-10-25T18:15:35.295Z,37.27
2017-10-25T18:20:38.039Z,41.07
2017-10-25T18:25:39.995Z,42.80
2017-10-25T18:30:41.948Z,43.93
2017-10-25T18:35:43.992Z,51.03
2017-10-25T18:40:45.952Z,46.47
2017-10-25T18:45:48.626Z,54.07
2017-10-25T18:50:50.602Z,42.60
2017-10-25T18:55:52.545Z,56.70
2017-10-25T19:00:54.506Z,54.43
2017-10-25T19:05:56.630Z,54.90
2017-10-25T19:10:58.571Z,56.50
2017-10-25T19:16:00.500Z,47.63
2017-10-25T19:21:04.636Z,61.43
2017-10-25T19:26:07.268Z,67.20
2017-10-25T19:31:09.909Z,78.90
2017-10-25T19:36:12.032Z,73.47
2017-10-25T19:41:14.062Z,91.57
2017-10-25T19:46:16.047Z,52.73
2017-10-25T19:51:17.992Z,61.50
2017-10-25T19:56:19.925Z,77.40
2017-10-25T20:01:21.987Z,62.80
2017-10-25T20:06:24.007Z,64.80
2017-10-25T20:11:26.141Z,53.67
2017-10-25T20:16:28.079Z,74.57
2017-10-25T20:21:30.601Z,79.20
2017-10-25T20:26:34.327Z,88.43
2017-10-25T20:31:36.419Z,78.07
2017-10-25T20:36:39.098Z,94.33
2017-10-25T20:41:41.035Z,102.23
2017-10-25T20:46:43.024Z,82.00
2017-10-25T20:51:44.980Z,80.00
2017-10-25T20:56:46.922Z,87.13
2017-10-25T21:01:48.888Z,86.00
2017-10-25T21:06:50.843Z,77.03
2017-10-25T21:11:52.750Z,76.63
2017-10-25T21:16:54.668Z,87.13
2017-10-25T21:21:57.324Z,72.20
2017-10-25T21:26:59.267Z,90.33
2017-10-25T21:32:01.202Z,89.60
2017-10-25T21:37:03.162Z,80.37
2017-10-25T21:42:05.080Z,84.67
2017-10-25T21:47:07.081Z,78.37
2017-10-25T21:52:09.024Z,83.37
2017-10-25T21:57:10.925Z,97.50
2017-10-25T22:02:12.878Z,68.87
2017-10-25T22:07:14.795Z,53.40
2017-10-25T22:12:16.808Z,68.17
2017-10-25T22:17:18.732Z,52.93
2017-10-25T22:22:21.380Z,47.23
2017-10-25T22:27:23.335Z,66.37
2017-10-25T22:32:25.245Z,38.60
2017-10-25T22:37:27.154Z,50.13
2017-10-25T22:42:29.811Z,47.73
2017-10-25T22:47:31.803Z,46.23
2017-10-25T22:52:33.757Z,35.63
2017-10-25T22:57:35.722Z,40.83
2017-10-25T23:02:37.665Z,39.90
2017-10-25T23:07:39.659Z,46.60
2017-10-25T23:12:41.573Z,55.07
2017-10-25T23:17:43.556Z,59.10
2017-10-25T23:22:45.491Z,79.93
2017-10-25T23:27:47.413Z,89.50
2017-10-25T23:32:50.131Z,113.23
2017-10-25T23:37:52.821Z,95.90
2017-10-25T23:42:54.744Z,82.00
2017-10-25T23:47:56.704Z,79.27
2017-10-25T23:52:58.670Z,108.17
2017-10-25T23:58:01.389Z,113.40
